createdAt,value
2023-04-25T00:00:24.157Z,0.00
2023-04-25T00:01:24.090Z,0.00
2023-04-25T00:02:24.177Z,0.00
2023-04-25T00:03:24.225Z,0.00
2023-04-25T00:04:24.474Z,0.00
2023-04-25T00:05:24.366Z,0.00
2023-04-25T00:06:24.068Z,0.00
2023-04-25T00:07:24.046Z,0.00
2023-04-25T00:08:24.007Z,0.00
2023-04-25T00:09:24.103Z,0.00
2023-04-25T00:10:24.078Z,0.00
2023-04-25T00:11:24.009Z,0.00
2023-04-25T00:12:24.155Z,0.00
2023-04-25T00:13:24.024Z,0.00
2023-04-25T00:14:23.991Z,0.00
2023-04-25T00:15:23.995Z,0.00
2023-04-25T00:16:23.961Z,0.00
2023-04-25T00:17:23.912Z,0.00
2023-04-25T00:18:23.903Z,0.00
2023-04-25T00:19:23.886Z,0.00
2023-04-25T00:20:23.932Z,0.00
2023-04-25T00:21:23.898Z,0.00
2023-04-25T00:22:23.934Z,0.00
2023-04-25T00:23:23.832Z,0.00
2023-04-25T00:24:23.833Z,0.00
2023-04-25T00:25:23.841Z,0.00
2023-04-25T00:26:23.828Z,0.00
2023-04-25T00:27:23.806Z,0.00
2023-04-25T00:28:23.877Z,0.00
2023-04-25T00:29:23.812Z,0.00
2023-04-25T00:30:23.794Z,0.00
2023-04-25T00:31:23.879Z,0.00
2023-04-25T00:32:23.869Z,0.00
2023-04-25T00:33:23.769Z,0.00
2023-04-25T00:34:23.789Z,0.00
2023-04-25T00:35:23.813Z,0.00
2023-04-25T00:36:23.716Z,0.00
2023-04-25T00:37:23.713Z,0.00
2023-04-25T00:38:23.677Z,0.00
2023-04-25T00:39:23.720Z,0.00
2023-04-25T00:40:23.690Z,0.00
2023-04-25T00:41:23.648Z,0.00
2023-04-25T00:42:23.637Z,0.00
2023-04-25T00:43:23.650Z,0.00
2023-04-25T00:44:23.643Z,0.00
2023-04-25T00:45:23.640Z,0.00
2023-04-25T00:46:23.621Z,0.00
2023-04-25T00:47:23.696Z,0.00
2023-04-25T00:48:23.587Z,0.00
2023-04-25T00:49:23.574Z,0.00
2023-04-25T00:50:23.554Z,0.00
2023-04-25T00:51:23.586Z,0.00
2023-04-25T00:52:23.574Z,0.00
2023-04-25T00:53:23.531Z,0.00
2023-04-25T00:54:23.526Z,0.00
2023-04-25T00:55:23.477Z,0.00
2023-04-25T00:56:23.466Z,0.00
2023-04-25T00:57:23.465Z,0.00
2023-04-25T00:58:23.516Z,0.00
2023-04-25T00:59:23.453Z,0.00
2023-04-25T01:00:23.425Z,0.00
2023-04-25T01:01:23.636Z,0.00
2023-04-25T01:02:23.511Z,0.00
2023-04-25T01:03:23.843Z,0.00
2023-04-25T01:04:23.596Z,0.00
2023-04-25T01:05:23.400Z,0.00
2023-04-25T01:06:23.388Z,0.00
2023-04-25T01:07:23.388Z,0.00
2023-04-25T01:08:23.362Z,0.00
2023-04-25T01:09:23.341Z,0.00
2023-04-25T01:10:23.341Z,0.00
2023-04-25T01:11:23.457Z,0.00
2023-04-25T01:12:23.304Z,0.00
2023-04-25T01:13:23.372Z,0.00
2023-04-25T01:14:23.318Z,0.00
2023-04-25T01:15:23.328Z,0.00
2023-04-25T01:16:23.303Z,0.00
2023-04-25T01:17:23.296Z,0.00
2023-04-25T01:18:23.242Z,0.00
2023-04-25T01:19:23.294Z,0.00
2023-04-25T01:20:23.282Z,0.00
2023-04-25T01:21:23.278Z,0.00
2023-04-25T01:22:23.218Z,0.00
2023-04-25T01:23:23.217Z,0.00
2023-04-25T01:24:23.234Z,0.00
2023-04-25T01:25:23.201Z,0.00
2023-04-25T01:26:23.161Z,0.00
2023-04-25T01:27:23.246Z,0.00
2023-04-25T01:28:23.139Z,0.00
2023-04-25T01:29:23.159Z,0.00
2023-04-25T01:30:23.215Z,0.00
2023-04-25T01:31:23.773Z,0.00
2023-04-25T01:32:23.249Z,0.00
2023-04-25T01:33:23.190Z,0.00
2023-04-25T01:34:23.068Z,0.00
2023-04-25T01:35:23.096Z,0.00
2023-04-25T01:36:23.159Z,0.00
2023-04-25T01:37:23.072Z,0.00
2023-04-25T01:38:23.073Z,0.00
2023-04-25T01:39:23.072Z,0.00
2023-04-25T01:40:23.033Z,0.00
2023-04-25T01:41:24.206Z,0.00
2023-04-25T01:42:23.093Z,0.00
2023-04-25T01:43:23.037Z,0.00
2023-04-25T01:44:22.965Z,0.00
2023-04-25T01:45:23.050Z,0.00
2023-04-25T01:46:22.971Z,0.00
2023-04-25T01:47:22.949Z,0.00
2023-04-25T01:48:22.933Z,0.00
2023-04-25T01:49:22.897Z,0.00
2023-04-25T01:50:22.927Z,0.00
2023-04-25T01:51:23.006Z,0.00
2023-04-25T01:52:22.939Z,0.00
2023-04-25T01:53:22.855Z,0.00
2023-04-25T01:54:22.862Z,0.00
2023-04-25T01:55:22.872Z,0.00
2023-04-25T01:56:22.851Z,0.00
2023-04-25T01:57:22.914Z,0.00
2023-04-25T01:58:22.810Z,0.00
2023-04-25T01:59:22.814Z,0.00
2023-04-25T02:00:22.801Z,0.00
2023-04-25T02:01:22.809Z,0.00
2023-04-25T02:02:22.843Z,0.00
2023-04-25T02:03:22.875Z,0.00
2023-04-25T02:04:22.931Z,0.00
2023-04-25T02:05:22.754Z,0.00
2023-04-25T02:06:22.744Z,0.00
2023-04-25T02:07:22.722Z,0.00
2023-04-25T02:08:22.694Z,0.00
2023-04-25T02:09:22.687Z,0.00
2023-04-25T02:10:22.683Z,0.00
2023-04-25T02:11:22.678Z,0.00
2023-04-25T02:12:22.648Z,0.00
2023-04-25T02:13:22.686Z,0.00
2023-04-25T02:14:22.622Z,0.00
2023-04-25T02:15:22.620Z,0.00
2023-04-25T02:16:22.651Z,0.00
2023-04-25T02:17:22.594Z,0.00
2023-04-25T02:18:22.641Z,0.00
2023-04-25T02:19:22.591Z,0.00
2023-04-25T02:20:22.577Z,0.00
2023-04-25T02:21:22.593Z,0.00
2023-04-25T02:22:22.557Z,0.00
2023-04-25T02:23:22.586Z,0.00
2023-04-25T02:24:22.508Z,0.00
2023-04-25T02:25:22.543Z,0.00
2023-04-25T02:26:22.619Z,0.00
2023-04-25T02:27:22.521Z,0.00
2023-04-25T02:28:22.526Z,0.00
2023-04-25T02:29:22.463Z,0.00
2023-04-25T02:30:22.543Z,0.00
2023-04-25T02:31:22.509Z,0.00
2023-04-25T02:32:22.539Z,0.00
2023-04-25T02:33:22.435Z,0.00
2023-04-25T02:34:22.427Z,0.00
2023-04-25T02:35:22.428Z,0.00
2023-04-25T02:36:22.379Z,0.00
2023-04-25T02:37:22.800Z,0.00
2023-04-25T02:38:22.396Z,0.00
2023-04-25T02:39:22.374Z,0.00
2023-04-25T02:40:22.370Z,0.00
2023-04-25T02:41:22.421Z,0.00
2023-04-25T02:42:22.353Z,0.00
2023-04-25T02:43:22.428Z,0.00
2023-04-25T02:44:22.345Z,0.00
2023-04-25T02:45:22.505Z,0.00
2023-04-25T02:46:32.281Z,0.00
2023-04-25T02:47:23.493Z,0.00
2023-04-25T02:48:22.314Z,0.00
2023-04-25T02:49:22.248Z,0.00
2023-04-25T02:50:22.280Z,0.00
2023-04-25T02:51:22.292Z,0.00
2023-04-25T02:52:22.248Z,0.00
2023-04-25T02:53:22.247Z,0.00
2023-04-25T02:54:22.198Z,0.00
2023-04-25T02:55:22.190Z,0.00
2023-04-25T02:56:22.184Z,0.00
2023-04-25T02:57:22.177Z,0.00
2023-04-25T02:58:22.173Z,0.00
2023-04-25T02:59:22.171Z,0.00
2023-04-25T03:00:22.145Z,0.00
2023-04-25T03:01:22.278Z,0.00
2023-04-25T03:02:22.142Z,0.00
2023-04-25T03:03:22.291Z,0.00
2023-04-25T03:04:22.178Z,0.00
2023-04-25T03:05:22.138Z,0.00
2023-04-25T03:06:22.070Z,0.00
2023-04-25T03:07:22.070Z,0.00
2023-04-25T03:08:22.141Z,0.00
2023-04-25T03:09:22.050Z,0.00
2023-04-25T03:10:22.047Z,0.00
2023-04-25T03:11:22.014Z,0.00
2023-04-25T03:12:22.734Z,0.00
2023-04-25T03:13:22.113Z,0.00
2023-04-25T03:14:22.073Z,0.00
2023-04-25T03:15:22.003Z,0.00
2023-04-25T03:16:22.003Z,0.00
2023-04-25T03:17:22.038Z,0.00
2023-04-25T03:18:21.934Z,0.00
2023-04-25T03:19:21.930Z,0.00
2023-04-25T03:20:21.937Z,0.00
2023-04-25T03:21:21.913Z,0.00
2023-04-25T03:22:21.905Z,0.00
2023-04-25T03:23:21.910Z,0.00
2023-04-25T03:24:21.883Z,0.00
2023-04-25T03:25:21.907Z,0.00
2023-04-25T03:26:21.857Z,0.00
2023-04-25T03:27:21.853Z,0.00
2023-04-25T03:28:21.880Z,0.00
2023-04-25T03:29:21.826Z,0.00
2023-04-25T03:30:21.845Z,0.00
2023-04-25T03:31:21.827Z,0.00
2023-04-25T03:32:22.012Z,0.00
2023-04-25T03:33:21.750Z,0.00
2023-04-25T03:34:21.807Z,0.00
2023-04-25T03:35:21.811Z,0.00
2023-04-25T03:36:21.820Z,0.00
2023-04-25T03:37:21.732Z,0.00
2023-04-25T03:38:21.748Z,0.00
2023-04-25T03:39:21.721Z,0.00
2023-04-25T03:40:21.708Z,0.00
2023-04-25T03:41:21.698Z,0.00
2023-04-25T03:42:21.662Z,0.00
2023-04-25T03:43:21.667Z,0.00
2023-04-25T03:44:21.675Z,0.00
2023-04-25T03:45:21.684Z,0.00
2023-04-25T03:46:21.726Z,0.00
2023-04-25T03:47:21.671Z,0.00
2023-04-25T03:48:21.586Z,0.00
2023-04-25T03:49:21.604Z,0.00
2023-04-25T03:50:21.641Z,4.00
2023-04-25T03:51:21.608Z,0.00
2023-04-25T03:52:21.623Z,0.00
2023-04-25T03:53:21.541Z,0.00
2023-04-25T03:54:22.405Z,0.00
2023-04-25T03:55:21.609Z,0.00
2023-04-25T03:56:21.646Z,4.00
2023-04-25T03:57:21.532Z,0.00
2023-04-25T03:58:21.482Z,0.00
2023-04-25T03:59:21.614Z,0.00
2023-04-25T04:00:21.582Z,4.00
2023-04-25T04:01:21.489Z,4.00
2023-04-25T04:02:21.600Z,0.00
2023-04-25T04:03:21.878Z,4.00
2023-04-25T04:04:21.686Z,4.00
2023-04-25T04:05:21.647Z,4.00
2023-04-25T04:06:21.441Z,8.00
2023-04-25T04:07:21.437Z,4.00
2023-04-25T04:08:21.374Z,4.00
2023-04-25T04:09:21.412Z,8.00
2023-04-25T04:10:21.356Z,8.00
2023-04-25T04:11:21.419Z,8.00
2023-04-25T04:12:21.497Z,8.00
2023-04-25T04:13:21.380Z,12.00
2023-04-25T04:14:21.381Z,8.00
2023-04-25T04:15:21.417Z,12.00
2023-04-25T04:16:21.408Z,12.00
2023-04-25T04:17:21.304Z,16.00
2023-04-25T04:18:21.280Z,16.00
2023-04-25T04:19:21.339Z,16.00
2023-04-25T04:20:21.314Z,20.00
2023-04-25T04:21:21.292Z,20.00
2023-04-25T04:22:21.321Z,24.00
2023-04-25T04:23:21.303Z,24.00
2023-04-25T04:24:21.253Z,24.00
2023-04-25T04:25:21.251Z,28.00
2023-04-25T04:26:21.262Z,32.00
2023-04-25T04:27:21.205Z,32.00
2023-04-25T04:28:21.221Z,32.00
2023-04-25T04:29:21.194Z,36.00
2023-04-25T04:30:21.182Z,36.00
2023-04-25T04:31:21.244Z,40.00
2023-04-25T04:32:21.201Z,44.00
2023-04-25T04:33:21.137Z,48.00
2023-04-25T04:34:21.114Z,56.00
2023-04-25T04:35:21.215Z,56.00
2023-04-25T04:36:21.225Z,60.00
2023-04-25T04:37:21.168Z,72.00
2023-04-25T04:38:21.091Z,76.00
2023-04-25T04:39:21.063Z,76.00
2023-04-25T04:40:21.110Z,72.00
2023-04-25T04:41:21.100Z,72.00
2023-04-25T04:42:21.113Z,72.00
2023-04-25T04:43:21.022Z,72.00
2023-04-25T04:44:21.096Z,68.00
2023-04-25T04:45:21.024Z,76.00
2023-04-25T04:46:21.001Z,72.00
2023-04-25T04:47:21.018Z,80.00
2023-04-25T04:48:20.961Z,88.00
2023-04-25T04:49:20.938Z,92.00
2023-04-25T04:50:21.002Z,96.00
2023-04-25T04:51:20.940Z,108.00
2023-04-25T04:52:20.945Z,116.00
2023-04-25T04:53:20.925Z,128.00
2023-04-25T04:54:20.993Z,144.00
2023-04-25T04:55:20.938Z,164.00
2023-04-25T04:56:20.886Z,180.00
2023-04-25T04:57:20.914Z,180.00
2023-04-25T04:58:20.826Z,188.00
2023-04-25T04:59:20.838Z,196.00
2023-04-25T05:00:20.901Z,204.00
2023-04-25T05:01:20.879Z,212.00
2023-04-25T05:02:20.806Z,220.00
2023-04-25T05:03:20.997Z,216.00
2023-04-25T05:04:21.034Z,228.00
2023-04-25T05:05:20.839Z,236.00
2023-04-25T05:06:20.771Z,236.00
2023-04-25T05:07:20.783Z,244.00
2023-04-25T05:08:20.745Z,256.00
2023-04-25T05:09:20.781Z,264.00
2023-04-25T05:10:20.723Z,260.00
2023-04-25T05:11:20.826Z,268.00
2023-04-25T05:12:20.704Z,268.00
2023-04-25T05:13:20.801Z,280.00
2023-04-25T05:14:20.829Z,268.00
2023-04-25T05:15:20.706Z,256.00
2023-04-25T05:16:20.772Z,248.00
2023-04-25T05:17:20.636Z,252.00
2023-04-25T05:18:23.161Z,276.00
2023-04-25T05:19:20.913Z,324.00
2023-04-25T05:20:20.858Z,352.00
2023-04-25T05:21:20.586Z,368.00
2023-04-25T05:22:20.635Z,372.00
2023-04-25T05:23:20.617Z,364.00
2023-04-25T05:24:20.583Z,380.00
2023-04-25T05:25:20.621Z,388.00
2023-04-25T05:26:20.678Z,396.00
2023-04-25T05:27:20.635Z,400.00
2023-04-25T05:28:20.531Z,400.00
2023-04-25T05:29:20.601Z,396.00
2023-04-25T05:30:20.520Z,408.00
2023-04-25T05:31:20.570Z,420.00
2023-04-25T05:32:20.757Z,428.00
2023-04-25T05:33:20.611Z,444.00
2023-04-25T05:34:21.455Z,464.00
2023-04-25T05:35:20.714Z,480.00
2023-04-25T05:36:20.616Z,488.00
2023-04-25T05:37:20.420Z,500.00
2023-04-25T05:38:20.452Z,492.00
2023-04-25T05:39:20.397Z,488.00
2023-04-25T05:40:20.389Z,508.00
2023-04-25T05:41:20.375Z,540.00
2023-04-25T05:42:20.464Z,528.00
2023-04-25T05:43:20.379Z,532.00
2023-04-25T05:44:20.342Z,564.00
2023-04-25T05:45:20.327Z,572.00
2023-04-25T05:46:20.323Z,596.00
2023-04-25T05:47:20.308Z,604.00
2023-04-25T05:48:20.322Z,584.00
2023-04-25T05:49:20.280Z,576.00
2023-04-25T05:50:20.291Z,564.00
2023-04-25T05:51:20.297Z,560.00
2023-04-25T05:52:20.254Z,564.00
2023-04-25T05:53:20.251Z,576.00
2023-04-25T05:54:20.225Z,576.00
2023-04-25T05:55:20.399Z,564.00
2023-04-25T05:56:20.354Z,556.00
2023-04-25T05:57:20.219Z,560.00
2023-04-25T05:58:20.195Z,592.00
2023-04-25T05:59:20.335Z,608.00
2023-04-25T06:00:20.199Z,600.00
2023-04-25T06:01:20.164Z,608.00
2023-04-25T06:02:20.334Z,636.00
2023-04-25T06:03:20.926Z,652.00
2023-04-25T06:04:20.334Z,652.00
2023-04-25T06:05:20.374Z,652.00
2023-04-25T06:06:20.116Z,624.00
2023-04-25T06:07:20.120Z,632.00
2023-04-25T06:08:20.178Z,700.00
2023-04-25T06:09:20.070Z,728.00
2023-04-25T06:10:20.088Z,716.00
2023-04-25T06:11:20.068Z,736.00
2023-04-25T06:12:20.068Z,748.00
2023-04-25T06:13:20.026Z,748.00
2023-04-25T06:14:20.113Z,776.00
2023-04-25T06:16:20.094Z,820.00
2023-04-25T06:17:20.035Z,796.00
2023-04-25T06:18:20.118Z,800.00
2023-04-25T06:19:19.986Z,796.00
2023-04-25T06:20:20.202Z,768.00
2023-04-25T06:21:19.945Z,760.00
2023-04-25T06:22:19.940Z,736.00
2023-04-25T06:23:19.987Z,768.00
2023-04-25T06:24:19.912Z,848.00
2023-04-25T06:25:20.061Z,900.00
2023-04-25T06:26:19.902Z,876.00
2023-04-25T06:27:19.881Z,800.00
2023-04-25T06:28:19.939Z,736.00
2023-04-25T06:29:19.875Z,768.00
2023-04-25T06:30:19.864Z,784.00
2023-04-25T06:31:19.875Z,796.00
2023-04-25T06:32:19.875Z,848.00
2023-04-25T06:33:19.952Z,860.00
2023-04-25T06:34:19.905Z,920.00
2023-04-25T06:35:19.826Z,972.00
2023-04-25T06:36:19.904Z,980.00
2023-04-25T06:37:19.767Z,956.00
2023-04-25T06:38:19.844Z,964.00
2023-04-25T06:39:19.905Z,952.00
2023-04-25T06:40:19.797Z,936.00
2023-04-25T06:41:19.785Z,956.00
2023-04-25T06:42:19.872Z,980.00
2023-04-25T06:43:19.728Z,1016.00
2023-04-25T06:44:19.695Z,1052.00
2023-04-25T06:45:19.809Z,1088.00
2023-04-25T06:46:19.779Z,1140.00
2023-04-25T06:47:19.811Z,1104.00
2023-04-25T06:48:19.790Z,1100.00
2023-04-25T06:49:19.649Z,1088.00
2023-04-25T06:50:19.676Z,1076.00
2023-04-25T06:51:20.249Z,1088.00
2023-04-25T06:52:19.679Z,1124.00
2023-04-25T06:53:19.692Z,1124.00
2023-04-25T06:54:19.618Z,1120.00
2023-04-25T06:55:19.741Z,1112.00
2023-04-25T06:56:19.655Z,1092.00
2023-04-25T06:57:19.636Z,1036.00
2023-04-25T06:58:19.651Z,1004.00
2023-04-25T06:59:19.550Z,1072.00
2023-04-25T07:00:19.607Z,1156.00
2023-04-25T07:01:19.570Z,1152.00
2023-04-25T07:02:19.733Z,1128.00
2023-04-25T07:03:19.657Z,1132.00
2023-04-25T07:04:19.805Z,1164.00
2023-04-25T07:05:19.559Z,1168.00
2023-04-25T07:06:19.497Z,1132.00
2023-04-25T07:07:19.514Z,1180.00
2023-04-25T07:08:19.439Z,1260.00
2023-04-25T07:09:19.419Z,1244.00
2023-04-25T07:10:19.398Z,1296.00
2023-04-25T07:11:19.576Z,1252.00
2023-04-25T07:12:19.391Z,1208.00
2023-04-25T07:13:19.393Z,1184.00
2023-04-25T07:14:19.417Z,1260.00
2023-04-25T07:15:19.414Z,1280.00
2023-04-25T07:16:19.418Z,1284.00
2023-04-25T07:17:19.338Z,1280.00
2023-04-25T07:18:19.342Z,1304.00
2023-04-25T07:19:19.305Z,1304.00
2023-04-25T07:20:19.334Z,1348.00
2023-04-25T07:21:19.276Z,1276.00
2023-04-25T07:22:19.345Z,1296.00
2023-04-25T07:23:19.254Z,1260.00
2023-04-25T07:24:19.398Z,1216.00
2023-04-25T07:25:19.315Z,1208.00
2023-04-25T07:26:19.259Z,1236.00
2023-04-25T07:27:19.217Z,1196.00
2023-04-25T07:28:19.742Z,1084.00
2023-04-25T07:29:19.196Z,916.00
2023-04-25T07:30:19.249Z,968.00
2023-04-25T07:31:19.178Z,1116.00
2023-04-25T07:32:19.295Z,1148.00
2023-04-25T07:33:19.158Z,1256.00
2023-04-25T07:34:19.198Z,1324.00
2023-04-25T07:35:19.160Z,1336.00
2023-04-25T07:36:19.129Z,1224.00
2023-04-25T07:37:19.237Z,1272.00
2023-04-25T07:38:19.154Z,1492.00
2023-04-25T07:39:19.209Z,1520.00
2023-04-25T07:40:19.080Z,1324.00
2023-04-25T07:41:19.067Z,1100.00
2023-04-25T07:42:19.203Z,1084.00
2023-04-25T07:43:19.051Z,1176.00
2023-04-25T07:44:19.055Z,1228.00
2023-04-25T07:45:19.033Z,1240.00
2023-04-25T07:46:19.219Z,1244.00
2023-04-25T07:47:19.062Z,1312.00
2023-04-25T07:48:19.003Z,1528.00
2023-04-25T07:49:18.990Z,1388.00
2023-04-25T07:50:19.169Z,1040.00
2023-04-25T07:51:18.963Z,912.00
2023-04-25T07:52:18.975Z,1088.00
2023-04-25T07:53:18.978Z,1196.00
2023-04-25T07:54:19.020Z,1224.00
2023-04-25T07:55:18.914Z,1216.00
2023-04-25T07:56:19.102Z,1168.00
2023-04-25T07:57:18.882Z,1140.00
2023-04-25T07:58:18.945Z,1248.00
2023-04-25T07:59:18.926Z,1236.00
2023-04-25T08:00:18.864Z,1208.00
2023-04-25T08:01:18.836Z,1324.00
2023-04-25T08:02:18.870Z,1508.00
2023-04-25T08:03:18.989Z,1384.00
2023-04-25T08:04:19.076Z,1292.00
2023-04-25T08:05:22.163Z,1128.00
2023-04-25T08:06:18.955Z,1200.00
2023-04-25T08:07:18.774Z,1348.00
2023-04-25T08:08:18.807Z,1288.00
2023-04-25T08:09:18.759Z,1044.00
2023-04-25T08:10:18.771Z,1136.00
2023-04-25T08:11:18.821Z,1384.00
2023-04-25T08:12:18.740Z,1728.00
2023-04-25T08:13:18.729Z,1508.00
2023-04-25T08:14:18.760Z,964.00
2023-04-25T08:15:18.698Z,908.00
2023-04-25T08:16:18.736Z,1052.00
2023-04-25T08:17:18.684Z,1184.00
2023-04-25T08:18:18.772Z,1100.00
2023-04-25T08:19:18.667Z,1084.00
2023-04-25T08:20:18.663Z,1248.00
2023-04-25T08:21:18.607Z,1516.00
2023-04-25T08:22:18.620Z,1300.00
2023-04-25T08:23:18.603Z,1160.00
2023-04-25T08:24:18.640Z,1228.00
2023-04-25T08:25:18.582Z,1340.00
2023-04-25T08:26:18.580Z,1412.00
2023-04-25T08:27:18.543Z,1324.00
2023-04-25T08:28:18.642Z,1436.00
2023-04-25T08:29:18.645Z,1564.00
2023-04-25T08:30:18.578Z,1244.00
2023-04-25T08:31:18.756Z,1036.00
2023-04-25T08:32:18.564Z,1064.00
2023-04-25T08:33:18.535Z,1316.00
2023-04-25T08:34:18.529Z,1364.00
2023-04-25T08:35:18.511Z,1032.00
2023-04-25T08:36:31.453Z,944.00
2023-04-25T08:37:19.459Z,1028.00
2023-04-25T08:38:18.437Z,1052.00
2023-04-25T08:39:18.519Z,1044.00
2023-04-25T08:40:18.456Z,1068.00
2023-04-25T08:41:18.471Z,1096.00
2023-04-25T08:42:18.460Z,1096.00
2023-04-25T08:43:18.397Z,1196.00
2023-04-25T08:44:18.418Z,1372.00
2023-04-25T08:45:18.381Z,1424.00
2023-04-25T08:46:18.453Z,1184.00
2023-04-25T08:47:18.365Z,1124.00
2023-04-25T08:48:18.358Z,1036.00
2023-04-25T08:49:18.396Z,928.00
2023-04-25T08:50:18.367Z,932.00
2023-04-25T08:51:19.813Z,952.00
2023-04-25T08:52:18.321Z,872.00
2023-04-25T08:53:18.294Z,896.00
2023-04-25T08:55:18.347Z,1748.00
2023-04-25T08:56:18.250Z,1616.00
2023-04-25T08:57:18.314Z,1044.00
2023-04-25T08:58:18.277Z,712.00
2023-04-25T08:59:18.306Z,664.00
2023-04-25T09:00:18.288Z,816.00
2023-04-25T09:01:18.253Z,836.00
2023-04-25T09:02:18.237Z,800.00
2023-04-25T09:03:18.484Z,776.00
2023-04-25T09:04:18.224Z,868.00
2023-04-25T09:05:20.179Z,1240.00
2023-04-25T09:06:18.235Z,1696.00
2023-04-25T09:07:18.210Z,1720.00
2023-04-25T09:08:18.458Z,1508.00
2023-04-25T09:09:18.126Z,1448.00
2023-04-25T09:10:18.400Z,1468.00
2023-04-25T09:11:19.588Z,1416.00
2023-04-25T09:12:18.173Z,1344.00
2023-04-25T09:13:18.097Z,1392.00
2023-04-25T09:14:18.077Z,1452.00
2023-04-25T09:15:20.927Z,1296.00
2023-04-25T09:16:18.075Z,1316.00
2023-04-25T09:17:18.065Z,1132.00
2023-04-25T09:18:18.004Z,1232.00
2023-04-25T09:19:18.020Z,1628.00
2023-04-25T09:20:18.062Z,1864.00
2023-04-25T09:21:18.039Z,1540.00
2023-04-25T09:22:18.065Z,1412.00
2023-04-25T09:23:17.965Z,1460.00
2023-04-25T09:24:17.998Z,1476.00
2023-04-25T09:25:17.964Z,1348.00
2023-04-25T09:26:17.956Z,1220.00
2023-04-25T09:27:18.067Z,1260.00
2023-04-25T09:28:17.919Z,1276.00
2023-04-25T09:29:17.922Z,1192.00
2023-04-25T09:30:17.949Z,1020.00
2023-04-25T09:31:17.900Z,992.00
2023-04-25T09:32:17.992Z,968.00
2023-04-25T09:33:18.046Z,872.00
2023-04-25T09:34:17.856Z,904.00
2023-04-25T09:35:17.851Z,1008.00
2023-04-25T09:36:17.831Z,1040.00
2023-04-25T09:37:17.923Z,1212.00
2023-04-25T09:38:17.795Z,1244.00
2023-04-25T09:39:17.825Z,1124.00
2023-04-25T09:40:17.930Z,948.00
2023-04-25T09:41:17.957Z,764.00
2023-04-25T09:42:17.871Z,716.00
2023-04-25T09:43:18.042Z,736.00
2023-04-25T09:44:17.752Z,864.00
2023-04-25T09:45:17.751Z,1048.00
2023-04-25T09:46:17.845Z,1200.00
2023-04-25T09:47:17.844Z,1288.00
2023-04-25T09:48:17.910Z,1480.00
2023-04-25T09:49:17.891Z,1620.00
2023-04-25T09:50:17.757Z,1640.00
2023-04-25T09:51:17.764Z,1760.00
2023-04-25T09:52:17.723Z,1964.00
2023-04-25T09:53:17.749Z,1952.00
2023-04-25T09:54:17.778Z,1856.00
2023-04-25T09:55:17.772Z,1908.00
2023-04-25T09:56:17.606Z,1852.00
2023-04-25T09:57:17.710Z,1572.00
2023-04-25T09:58:17.699Z,1380.00
2023-04-25T09:59:17.888Z,1276.00
2023-04-25T10:00:17.831Z,1152.00
2023-04-25T10:01:17.602Z,924.00
2023-04-25T10:02:17.691Z,732.00
2023-04-25T10:03:17.853Z,616.00
2023-04-25T10:04:17.678Z,588.00
2023-04-25T10:05:17.753Z,560.00
2023-04-25T10:06:17.599Z,540.00
2023-04-25T10:07:17.565Z,504.00
2023-04-25T10:08:17.542Z,484.00
2023-04-25T10:09:17.527Z,500.00
2023-04-25T10:10:17.572Z,632.00
2023-04-25T10:11:17.455Z,936.00
2023-04-25T10:12:17.491Z,1164.00
2023-04-25T10:13:17.432Z,1328.00
2023-04-25T10:14:17.529Z,1468.00
2023-04-25T10:15:17.399Z,1612.00
2023-04-25T10:16:17.497Z,1680.00
2023-04-25T10:17:17.531Z,1684.00
2023-04-25T10:18:17.346Z,1684.00
2023-04-25T10:19:17.477Z,1704.00
2023-04-25T10:20:17.385Z,1744.00
2023-04-25T10:21:17.428Z,1808.00
2023-04-25T10:22:17.508Z,1884.00
2023-04-25T10:23:17.350Z,1888.00
2023-04-25T10:24:17.406Z,1904.00
2023-04-25T10:25:17.296Z,1812.00
2023-04-25T10:26:17.291Z,1664.00
2023-04-25T10:27:17.270Z,1380.00
2023-04-25T10:28:17.380Z,1180.00
2023-04-25T10:29:17.406Z,1216.00
2023-04-25T10:30:17.472Z,1064.00
2023-04-25T10:31:17.334Z,780.00
2023-04-25T10:32:17.429Z,620.00
2023-04-25T10:33:17.440Z,584.00
2023-04-25T10:34:17.201Z,556.00
2023-04-25T10:35:17.409Z,648.00
2023-04-25T10:36:17.257Z,800.00
2023-04-25T10:37:17.288Z,1028.00
2023-04-25T10:38:17.140Z,1380.00
2023-04-25T10:39:17.281Z,1704.00
2023-04-25T10:40:17.285Z,1840.00
2023-04-25T10:41:17.105Z,1924.00
2023-04-25T10:42:17.162Z,2008.00
2023-04-25T10:43:17.269Z,2040.00
2023-04-25T10:44:17.098Z,2000.00
2023-04-25T10:45:17.038Z,2008.00
2023-04-25T10:46:17.093Z,2080.00
2023-04-25T10:47:17.133Z,2096.00
2023-04-25T10:48:17.119Z,1876.00
2023-04-25T10:49:17.296Z,1616.00
2023-04-25T10:50:17.236Z,1632.00
2023-04-25T10:51:17.342Z,1784.00
2023-04-25T10:52:17.122Z,1828.00
2023-04-25T10:53:17.056Z,1768.00
2023-04-25T10:54:16.993Z,1784.00
2023-04-25T10:55:17.007Z,1776.00
2023-04-25T10:56:17.011Z,1760.00
2023-04-25T10:57:16.952Z,1796.00
2023-04-25T10:58:16.948Z,1884.00
2023-04-25T10:59:16.908Z,1856.00
2023-04-25T11:00:17.051Z,1692.00
2023-04-25T11:01:16.925Z,1600.00
2023-04-25T11:02:16.941Z,1488.00
2023-04-25T11:03:17.070Z,1480.00
2023-04-25T11:04:17.142Z,1460.00
2023-04-25T11:05:17.718Z,1300.00
2023-04-25T11:06:16.821Z,1104.00
2023-04-25T11:07:16.843Z,940.00
2023-04-25T11:08:17.708Z,852.00
2023-04-25T11:09:16.827Z,840.00
2023-04-25T11:10:16.829Z,800.00
2023-04-25T11:11:16.842Z,760.00
2023-04-25T11:12:16.840Z,856.00
2023-04-25T11:13:16.770Z,864.00
2023-04-25T11:14:16.766Z,844.00
2023-04-25T11:15:16.845Z,736.00
2023-04-25T11:16:26.862Z,648.00
2023-04-25T11:17:17.846Z,540.00
2023-04-25T11:18:16.880Z,540.00
2023-04-25T11:19:16.738Z,664.00
2023-04-25T11:20:16.667Z,672.00
2023-04-25T11:21:16.698Z,696.00
2023-04-25T11:22:16.643Z,740.00
2023-04-25T11:23:16.664Z,800.00
2023-04-25T11:24:16.648Z,828.00
2023-04-25T11:25:16.725Z,908.00
2023-04-25T11:26:16.628Z,932.00
2023-04-25T11:27:16.594Z,988.00
2023-04-25T11:28:16.590Z,1048.00
2023-04-25T11:29:16.605Z,1156.00
2023-04-25T11:30:16.626Z,1172.00
2023-04-25T11:31:16.625Z,1444.00
2023-04-25T11:32:16.790Z,1888.00
2023-04-25T11:33:16.600Z,1900.00
2023-04-25T11:34:16.516Z,1844.00
2023-04-25T11:35:16.556Z,1576.00
2023-04-25T11:36:16.520Z,1148.00
2023-04-25T11:37:16.511Z,892.00
2023-04-25T11:38:16.486Z,620.00
2023-04-25T11:39:16.581Z,436.00
2023-04-25T11:40:16.508Z,360.00
2023-04-25T11:41:16.485Z,324.00
2023-04-25T11:42:16.458Z,300.00
2023-04-25T11:43:16.697Z,268.00
2023-04-25T11:44:16.562Z,240.00
2023-04-25T11:45:16.563Z,228.00
2023-04-25T11:46:16.429Z,236.00
2023-04-25T11:47:16.418Z,260.00
2023-04-25T11:48:16.521Z,284.00
2023-04-25T11:49:16.927Z,308.00
2023-04-25T11:50:16.500Z,360.00
2023-04-25T11:51:16.389Z,400.00
2023-04-25T11:52:16.316Z,444.00
2023-04-25T11:53:16.620Z,504.00
2023-04-25T11:54:16.433Z,572.00
2023-04-25T11:55:16.321Z,636.00
2023-04-25T11:56:16.307Z,736.00
2023-04-25T11:57:16.338Z,780.00
2023-04-25T11:58:16.305Z,808.00
2023-04-25T11:59:16.297Z,848.00
2023-04-25T12:00:18.670Z,896.00
2023-04-25T12:01:16.215Z,904.00
2023-04-25T12:02:16.303Z,896.00
2023-04-25T12:03:16.434Z,884.00
2023-04-25T12:04:16.362Z,884.00
2023-04-25T12:05:31.256Z,936.00
2023-04-25T12:06:17.368Z,836.00
2023-04-25T12:07:16.226Z,700.00
2023-04-25T12:08:17.000Z,632.00
2023-04-25T12:09:16.148Z,636.00
2023-04-25T12:10:16.158Z,628.00
2023-04-25T12:11:16.138Z,624.00
2023-04-25T12:12:16.128Z,644.00
2023-04-25T12:13:16.110Z,660.00
2023-04-25T12:14:16.127Z,656.00
2023-04-25T12:15:16.131Z,640.00
2023-04-25T12:16:16.094Z,616.00
2023-04-25T12:17:16.163Z,604.00
2023-04-25T12:18:16.061Z,612.00
2023-04-25T12:19:16.036Z,636.00
2023-04-25T12:20:16.000Z,668.00
2023-04-25T12:21:16.162Z,712.00
2023-04-25T12:22:16.109Z,728.00
2023-04-25T12:23:16.011Z,732.00
2023-04-25T12:24:16.028Z,728.00
2023-04-25T12:25:15.984Z,716.00
2023-04-25T12:26:16.068Z,716.00
2023-04-25T12:27:15.961Z,736.00
2023-04-25T12:28:15.999Z,836.00
2023-04-25T12:29:15.941Z,972.00
2023-04-25T12:30:15.923Z,1100.00
2023-04-25T12:31:16.027Z,1188.00
2023-04-25T12:32:15.890Z,1292.00
2023-04-25T12:33:15.983Z,1344.00
2023-04-25T12:34:15.878Z,1360.00
2023-04-25T12:35:15.884Z,1372.00
2023-04-25T12:36:15.852Z,1440.00
2023-04-25T12:37:15.890Z,1548.00
2023-04-25T12:38:15.979Z,1588.00
2023-04-25T12:39:15.918Z,1512.00
2023-04-25T12:40:15.827Z,1388.00